createdAt,value
2022-10-31T00:03:24.289Z,16.03
2022-10-31T00:13:29.944Z,15.71
2022-10-31T00:23:35.860Z,15.96
2022-10-31T00:33:45.760Z,15.74
2022-10-31T00:43:54.597Z,16.03
2022-10-31T00:53:57.606Z,15.64
2022-10-31T01:04:04.199Z,15.62
2022-10-31T01:14:11.545Z,15.24
2022-10-31T01:24:16.093Z,15.61
2022-10-31T01:34:19.970Z,15.04
2022-10-31T01:45:06.461Z,15.13
2022-10-31T01:55:15.919Z,15.40
2022-10-31T02:05:23.917Z,15.44
2022-10-31T02:15:29.397Z,15.34
2022-10-31T02:25:58.169Z,15.35
2022-10-31T02:36:15.272Z,15.29
2022-10-31T02:46:27.913Z,15.28
2022-10-31T02:56:33.601Z,15.12
2022-10-31T03:06:44.001Z,14.99
2022-10-31T03:16:52.847Z,14.98
2022-10-31T03:26:57.511Z,15.01
2022-10-31T03:37:06.381Z,15.02
2022-10-31T03:47:19.310Z,14.81
2022-10-31T03:57:35.093Z,15.00
2022-10-31T04:07:49.219Z,14.75
2022-10-31T04:18:00.712Z,15.01
2022-10-31T04:28:05.144Z,14.60
2022-10-31T04:38:15.958Z,14.71
2022-10-31T04:48:25.568Z,14.49
2022-10-31T04:58:35.563Z,14.46
2022-10-31T05:08:42.914Z,14.17
2022-10-31T05:18:49.456Z,14.44
2022-10-31T05:29:11.330Z,14.03
2022-10-31T05:39:19.830Z,14.35
2022-10-31T05:49:25.675Z,14.08
2022-10-31T05:59:58.467Z,14.14
2022-10-31T06:10:02.004Z,14.28
2022-10-31T06:20:08.999Z,13.93
2022-10-31T06:30:26.789Z,13.84
2022-10-31T06:40:34.817Z,13.76
2022-10-31T06:51:01.424Z,13.71
2022-10-31T07:01:06.439Z,13.88
2022-10-31T07:11:12.857Z,13.88
2022-10-31T07:21:17.726Z,14.14
2022-10-31T07:31:22.811Z,14.14
2022-10-31T07:41:55.448Z,14.15
2022-10-31T07:51:59.184Z,14.25
2022-10-31T08:13:24.263Z,14.14
2022-10-31T08:23:30.455Z,14.22
2022-10-31T08:33:37.078Z,14.42
2022-10-31T08:43:56.718Z,14.49
2022-10-31T08:54:05.781Z,14.56
2022-10-31T09:04:36.204Z,14.70
2022-10-31T09:14:41.396Z,14.87
2022-10-31T09:25:06.500Z,14.88
2022-10-31T09:35:14.905Z,15.20
2022-10-31T09:45:34.648Z,15.39
2022-10-31T09:55:48.970Z,15.68
2022-10-31T10:06:19.412Z,15.78
2022-10-31T10:17:05.527Z,15.89
2022-10-31T10:27:22.330Z,15.95
2022-10-31T10:38:01.335Z,15.99
2022-10-31T10:48:43.648Z,16.30
2022-10-31T10:59:02.248Z,16.36
2022-10-31T11:09:12.299Z,16.64
2022-10-31T11:19:21.568Z,17.00
2022-10-31T11:29:27.991Z,17.25
2022-10-31T11:39:31.187Z,17.34
2022-10-31T11:49:39.576Z,17.28
2022-10-31T11:59:55.528Z,17.47
2022-10-31T12:10:09.494Z,17.61
2022-10-31T12:20:26.082Z,17.77
2022-10-31T12:30:43.148Z,17.85
2022-10-31T12:41:10.430Z,17.86
2022-10-31T12:51:27.370Z,17.88
2022-10-31T13:01:37.929Z,17.92
2022-10-31T13:11:48.634Z,18.00
2022-10-31T13:21:59.600Z,18.08
2022-10-31T13:32:07.524Z,18.21
2022-10-31T13:42:20.800Z,18.16
2022-10-31T13:52:32.183Z,18.17
2022-10-31T14:02:39.245Z,18.14
2022-10-31T14:12:46.908Z,18.19
2022-10-31T14:22:50.454Z,18.25
2022-10-31T14:32:58.445Z,18.31
2022-10-31T14:43:20.277Z,18.30
2022-10-31T14:53:27.590Z,18.32
2022-10-31T15:03:35.242Z,18.40
2022-10-31T15:13:44.485Z,18.46
2022-10-31T15:23:48.661Z,18.45
2022-10-31T15:33:54.510Z,18.41
2022-10-31T15:44:04.783Z,18.45
2022-10-31T15:54:16.073Z,18.40
2022-10-31T16:04:24.575Z,18.29
2022-10-31T16:14:32.320Z,18.24
2022-10-31T16:24:42.630Z,18.19
2022-10-31T16:34:46.886Z,18.18
2022-10-31T16:44:50.472Z,18.08
2022-10-31T16:54:55.689Z,18.03
2022-10-31T17:04:59.013Z,17.97
2022-10-31T17:15:04.513Z,17.98
2022-10-31T17:25:10.136Z,17.99
2022-10-31T17:35:18.337Z,17.97
2022-10-31T17:45:28.275Z,17.88
2022-10-31T17:55:55.840Z,17.85
2022-10-31T18:06:18.344Z,17.78
2022-10-31T18:27:52.780Z,17.80
2022-10-31T18:38:02.204Z,17.73
2022-10-31T18:48:21.571Z,17.68
2022-10-31T18:58:30.931Z,17.71
2022-10-31T19:09:28.457Z,17.61
2022-10-31T19:19:51.543Z,17.50
2022-10-31T19:30:05.370Z,17.54
2022-10-31T19:40:21.878Z,17.54
2022-10-31T19:50:37.298Z,17.49
2022-10-31T20:00:48.251Z,17.43
2022-10-31T20:10:55.758Z,17.37
2022-10-31T20:21:11.720Z,17.42
2022-10-31T20:31:22.709Z,17.40
2022-10-31T20:41:46.830Z,17.33
2022-10-31T20:51:56.599Z,17.22
2022-10-31T21:23:47.019Z,17.08
2022-10-31T21:33:50.124Z,16.98
2022-10-31T21:43:55.451Z,17.01
2022-10-31T21:54:16.544Z,17.18
2022-10-31T22:04:21.179Z,17.10
2022-10-31T22:14:24.048Z,17.13
2022-10-31T22:24:28.466Z,17.16
2022-10-31T22:34:31.578Z,17.09
2022-10-31T22:44:35.866Z,17.08
2022-10-31T22:54:38.987Z,17.14
2022-10-31T23:04:43.283Z,17.15
2022-10-31T23:14:46.068Z,17.15
2022-10-31T23:24:50.499Z,17.15
2022-10-31T23:34:56.466Z,17.25
2022-10-31T23:45:00.673Z,17.38
2022-10-31T23:55:03.845Z,17.57
